createdAt,value
2018-11-23T00:00:37.191Z,31.00
2018-11-23T00:03:06.540Z,33.03
2018-11-23T00:05:35.449Z,33.03
2018-11-23T00:08:04.193Z,33.77
2018-11-23T00:10:33.688Z,35.40
2018-11-23T00:13:02.481Z,38.47
2018-11-23T00:15:31.410Z,34.27
2018-11-23T00:18:00.430Z,33.17
2018-11-23T00:20:32.744Z,34.70
2018-11-23T00:23:02.756Z,33.65
2018-11-23T00:25:31.595Z,30.50
2018-11-23T00:28:00.330Z,33.87
2018-11-23T00:30:30.396Z,28.30
2018-11-23T00:32:59.199Z,31.50
2018-11-23T00:35:29.418Z,31.10
2018-11-23T00:37:58.215Z,33.65
2018-11-23T00:40:29.077Z,30.47
2018-11-23T00:42:58.651Z,30.70
2018-11-23T00:45:27.764Z,27.80
2018-11-23T00:47:57.296Z,30.35
2018-11-23T00:50:26.745Z,26.87
2018-11-23T00:52:56.504Z,27.27
2018-11-23T00:55:26.272Z,27.57
2018-11-23T00:57:55.077Z,25.97
2018-11-23T01:00:25.181Z,27.43
2018-11-23T01:02:54.493Z,25.87
2018-11-23T01:05:23.318Z,25.57
2018-11-23T01:07:52.210Z,27.07
2018-11-23T01:10:22.461Z,24.20
2018-11-23T01:12:52.598Z,24.90
2018-11-23T01:15:21.506Z,24.57
2018-11-23T01:17:50.380Z,25.75
2018-11-23T01:20:20.465Z,23.53
2018-11-23T01:22:49.692Z,25.10
2018-11-23T01:25:19.934Z,26.10
2018-11-23T01:27:49.771Z,31.80
2018-11-23T01:30:23.746Z,25.93
2018-11-23T01:32:52.484Z,26.00
2018-11-23T01:35:21.969Z,25.13
2018-11-23T01:37:50.843Z,24.93
2018-11-23T01:40:22.858Z,29.20
2018-11-23T01:42:52.145Z,27.17
2018-11-23T01:45:21.255Z,25.85
2018-11-23T01:47:50.008Z,27.37
2018-11-23T01:50:20.387Z,26.10
2018-11-23T01:52:49.829Z,23.85
2018-11-23T01:55:19.715Z,23.93
2018-11-23T01:57:48.720Z,25.17
2018-11-23T02:00:19.947Z,22.58
2018-11-23T02:02:49.530Z,24.67
2018-11-23T02:05:18.445Z,22.30
2018-11-23T02:07:47.322Z,23.07
2018-11-23T02:10:17.350Z,22.17
2018-11-23T02:12:46.053Z,22.32
2018-11-23T02:15:17.756Z,22.40
2018-11-23T02:17:46.848Z,25.25
2018-11-23T02:20:16.922Z,23.30
2018-11-23T02:22:46.194Z,23.18
2018-11-23T02:25:15.203Z,21.57
2018-11-23T02:27:43.898Z,23.05
2018-11-23T02:30:16.914Z,24.33
2018-11-23T02:32:45.887Z,22.50
2018-11-23T02:35:15.491Z,22.85
2018-11-23T02:37:44.400Z,23.00
2018-11-23T02:40:15.584Z,21.00
2018-11-23T02:45:37.466Z,22.10
2018-11-23T02:48:06.379Z,20.37
2018-11-23T02:50:35.264Z,21.97
2018-11-23T02:53:04.090Z,22.67
2018-11-23T02:55:33.125Z,22.50
2018-11-23T02:58:02.399Z,21.30
2018-11-23T03:00:31.298Z,20.88
2018-11-23T03:03:00.118Z,19.77
2018-11-23T03:05:28.894Z,21.03
2018-11-23T03:07:57.747Z,23.45
2018-11-23T03:10:26.625Z,20.60
2018-11-23T03:12:55.527Z,22.90
2018-11-23T03:15:24.451Z,20.70
2018-11-23T03:17:53.450Z,20.40
2018-11-23T03:20:22.954Z,22.03
2018-11-23T03:22:52.617Z,21.17
2018-11-23T03:25:21.363Z,19.25
2018-11-23T03:27:50.217Z,21.67
2018-11-23T03:30:21.925Z,21.10
2018-11-23T03:32:51.434Z,20.25
2018-11-23T03:35:21.073Z,20.75
2018-11-23T03:37:49.987Z,19.15
2018-11-23T03:40:18.775Z,19.23
2018-11-23T03:42:47.521Z,20.00
2018-11-23T03:45:16.790Z,20.12
2018-11-23T03:47:45.866Z,19.35
2018-11-23T03:50:15.613Z,18.62
2018-11-23T03:52:44.782Z,19.87
2018-11-23T03:55:13.600Z,19.57
2018-11-23T03:57:42.468Z,18.80
2018-11-23T04:00:17.375Z,20.77
2018-11-23T04:02:44.969Z,20.92
2018-11-23T04:05:13.897Z,18.95
2018-11-23T04:07:42.741Z,18.92
2018-11-23T04:10:12.891Z,19.62
2018-11-23T04:12:42.001Z,21.05
2018-11-23T04:15:11.547Z,19.25
2018-11-23T04:17:40.913Z,19.82
2018-11-23T04:20:11.733Z,19.92
2018-11-23T04:22:41.078Z,19.85
2018-11-23T04:25:10.169Z,21.62
2018-11-23T04:27:39.121Z,20.90
2018-11-23T04:30:10.323Z,22.45
2018-11-23T04:32:39.154Z,20.75
2018-11-23T04:35:09.703Z,19.90
2018-11-23T04:37:38.546Z,22.60
2018-11-23T04:40:08.882Z,21.55
2018-11-23T04:42:37.827Z,21.93
2018-11-23T04:45:07.172Z,21.48
2018-11-23T04:47:36.261Z,20.35
2018-11-23T04:50:05.501Z,21.90
2018-11-23T04:52:34.365Z,22.00
2018-11-23T04:55:03.449Z,20.80
2018-11-23T04:57:32.515Z,21.17
2018-11-23T05:00:01.387Z,22.77
2018-11-23T05:02:30.213Z,23.12
2018-11-23T05:04:59.424Z,21.33
2018-11-23T05:07:28.270Z,22.30
2018-11-23T05:09:57.124Z,20.68
2018-11-23T05:12:25.943Z,20.77
2018-11-23T05:14:54.894Z,21.27
2018-11-23T05:17:24.865Z,22.70
2018-11-23T05:19:53.710Z,22.62
2018-11-23T05:22:22.479Z,21.70
2018-11-23T05:24:51.390Z,20.75
2018-11-23T05:27:20.315Z,21.95
2018-11-23T05:29:49.302Z,22.00
2018-11-23T05:32:18.378Z,21.05
2018-11-23T05:34:47.235Z,22.30
2018-11-23T05:37:16.293Z,20.35
2018-11-23T05:39:45.224Z,19.87
2018-11-23T05:42:14.197Z,20.15
2018-11-23T05:44:43.205Z,21.27
2018-11-23T05:47:12.182Z,20.25
2018-11-23T05:49:40.973Z,24.32
2018-11-23T05:52:09.815Z,23.98
2018-11-23T05:54:38.656Z,22.00
2018-11-23T05:57:08.679Z,24.25
2018-11-23T05:59:36.512Z,23.73
2018-11-23T06:02:05.857Z,22.05
2018-11-23T06:04:35.670Z,22.93
2018-11-23T06:07:04.740Z,21.35
2018-11-23T06:09:33.764Z,21.97
2018-11-23T06:12:03.048Z,24.40
2018-11-23T06:14:32.038Z,22.67
2018-11-23T06:17:00.841Z,23.90
2018-11-23T06:19:29.812Z,21.82
2018-11-23T06:21:58.744Z,24.40
2018-11-23T06:24:32.198Z,28.42
2018-11-23T06:26:56.759Z,23.00
2018-11-23T06:29:25.605Z,24.70
2018-11-23T06:31:54.697Z,24.27
2018-11-23T06:34:23.805Z,22.40
2018-11-23T06:36:52.757Z,23.10
2018-11-23T06:39:21.566Z,21.75
2018-11-23T06:41:50.578Z,23.38
2018-11-23T06:44:24.922Z,24.30
2018-11-23T06:46:54.194Z,21.97
2018-11-23T06:49:23.071Z,27.98
2018-11-23T06:51:51.975Z,24.63
2018-11-23T06:54:21.244Z,26.42
2018-11-23T06:56:50.214Z,25.92
2018-11-23T06:59:19.622Z,26.05
2018-11-23T07:01:48.782Z,26.90
2018-11-23T07:04:18.037Z,26.17
2018-11-23T07:06:47.020Z,24.20
2018-11-23T07:09:16.279Z,27.60
2018-11-23T07:11:45.319Z,25.45
2018-11-23T07:14:14.321Z,26.55
2018-11-23T07:16:43.378Z,23.83
2018-11-23T07:19:12.557Z,22.80
2018-11-23T07:21:41.425Z,23.57
2018-11-23T07:24:14.302Z,22.95
2018-11-23T07:26:48.082Z,24.95
2018-11-23T07:29:17.663Z,26.33
2018-11-23T07:31:47.725Z,22.50
2018-11-23T07:34:16.873Z,21.95
2018-11-23T07:36:46.942Z,21.00
2018-11-23T07:39:26.685Z,23.80
2018-11-23T07:42:10.138Z,22.05
2018-11-23T07:44:39.101Z,21.33
2018-11-23T07:47:08.010Z,22.30
2018-11-23T07:49:37.195Z,19.77
2018-11-23T07:52:06.558Z,20.70
2018-11-23T07:54:35.376Z,19.27
2018-11-23T07:57:04.696Z,20.05
2018-11-23T07:59:34.082Z,21.12
2018-11-23T08:02:03.208Z,19.57
2018-11-23T08:04:32.441Z,19.57
2018-11-23T08:07:01.479Z,18.05
2018-11-23T08:09:30.666Z,17.02
2018-11-23T08:12:01.044Z,16.80
2018-11-23T08:14:30.209Z,16.52
2018-11-23T08:16:59.358Z,17.70
2018-11-23T08:19:28.299Z,18.92
2018-11-23T08:21:57.244Z,19.00
2018-11-23T08:24:27.162Z,16.80
2018-11-23T08:26:55.194Z,15.63
2018-11-23T08:29:24.375Z,15.48
2018-11-23T08:31:53.674Z,17.15
2018-11-23T08:34:22.815Z,16.55
2018-11-23T08:36:51.699Z,17.50
2018-11-23T08:39:21.070Z,17.20
2018-11-23T08:41:50.054Z,16.48
2018-11-23T08:44:19.644Z,16.90
2018-11-23T08:46:48.717Z,18.37
2018-11-23T08:49:17.905Z,17.42
2018-11-23T08:51:46.756Z,17.87
2018-11-23T08:54:15.925Z,16.42
2018-11-23T08:56:45.150Z,16.45
2018-11-23T08:59:14.683Z,17.25
2018-11-23T09:01:43.865Z,16.75
2018-11-23T09:04:14.064Z,17.77
2018-11-23T09:06:43.265Z,19.02
2018-11-23T09:09:12.558Z,16.12
2018-11-23T09:11:41.665Z,16.02
2018-11-23T09:14:11.254Z,17.87
2018-11-23T09:16:40.171Z,16.52
2018-11-23T09:19:09.307Z,18.75
2018-11-23T09:21:38.298Z,20.05
2018-11-23T09:24:07.553Z,18.62
2018-11-23T09:26:36.524Z,19.12
2018-11-23T09:29:05.620Z,19.45
2018-11-23T09:31:35.550Z,18.82
2018-11-23T09:34:05.062Z,19.02
2018-11-23T09:36:33.882Z,18.77
2018-11-23T09:39:02.995Z,19.07
2018-11-23T09:41:31.836Z,19.80
2018-11-23T09:44:00.903Z,19.17
2018-11-23T09:46:29.822Z,19.90
2018-11-23T09:48:58.926Z,20.27
2018-11-23T09:51:28.132Z,19.37
2018-11-23T09:53:57.291Z,19.10
2018-11-23T09:56:26.320Z,18.87
2018-11-23T09:58:55.511Z,19.73
2018-11-23T10:01:24.479Z,19.05
2018-11-23T10:03:53.700Z,19.37
2018-11-23T10:06:22.850Z,19.27
2018-11-23T10:08:53.826Z,19.93
2018-11-23T10:11:22.922Z,19.50
2018-11-23T10:13:52.022Z,20.77
2018-11-23T10:16:21.316Z,20.10
2018-11-23T10:18:51.243Z,20.02
2018-11-23T10:21:20.736Z,18.80
2018-11-23T10:23:49.702Z,18.47
2018-11-23T10:26:18.556Z,19.00
2018-11-23T10:28:47.594Z,18.77
2018-11-23T10:31:16.500Z,18.43
2018-11-23T10:33:45.294Z,17.87
2018-11-23T10:36:14.372Z,16.20
2018-11-23T10:38:43.243Z,17.57
2018-11-23T10:41:12.724Z,16.43
2018-11-23T10:43:41.807Z,16.87
2018-11-23T10:46:12.054Z,17.73
2018-11-23T10:48:41.192Z,19.20
2018-11-23T10:51:10.313Z,18.50
2018-11-23T10:53:39.396Z,17.07
2018-11-23T10:56:09.197Z,17.60
2018-11-23T10:58:38.502Z,17.47
2018-11-23T11:01:12.689Z,18.73
2018-11-23T11:03:46.613Z,16.90
2018-11-23T11:06:20.883Z,18.90
2018-11-23T11:08:50.041Z,17.00
2018-11-23T11:11:20.122Z,17.67
2018-11-23T11:13:49.648Z,16.60
2018-11-23T11:16:19.178Z,18.40
2018-11-23T11:18:49.644Z,17.90
2018-11-23T11:21:18.683Z,18.00
2018-11-23T11:23:47.524Z,20.37
2018-11-23T11:26:16.621Z,18.93
2018-11-23T11:28:45.432Z,17.37
2018-11-23T11:31:14.636Z,16.33
2018-11-23T11:33:43.549Z,17.77
2018-11-23T11:36:12.870Z,17.23
2018-11-23T11:38:41.751Z,15.90
2018-11-23T11:41:10.925Z,17.27
2018-11-23T11:43:40.189Z,16.13
2018-11-23T11:46:10.045Z,15.20
2018-11-23T11:48:39.428Z,15.50
2018-11-23T11:51:09.153Z,17.33
2018-11-23T11:53:38.128Z,16.57
2018-11-23T11:56:07.688Z,15.13
2018-11-23T11:58:37.365Z,14.63
2018-11-23T12:01:06.848Z,15.40
2018-11-23T12:03:35.877Z,14.57
2018-11-23T12:06:05.183Z,12.70
2018-11-23T12:08:34.287Z,13.60
2018-11-23T12:11:03.407Z,14.30
2018-11-23T12:13:32.581Z,14.20
2018-11-23T12:16:02.031Z,15.00
2018-11-23T12:18:31.391Z,14.03
2018-11-23T12:21:01.209Z,12.53
2018-11-23T12:23:30.255Z,13.00
2018-11-23T12:25:59.890Z,13.50
2018-11-23T12:28:29.429Z,14.80
2018-11-23T12:30:59.165Z,15.03
2018-11-23T12:33:28.426Z,13.70
2018-11-23T12:35:57.580Z,14.50
2018-11-23T12:38:28.115Z,14.00
2018-11-23T12:40:57.234Z,14.00
2018-11-23T12:43:26.447Z,15.30
2018-11-23T12:45:55.814Z,13.50
2018-11-23T12:48:25.137Z,14.53
2018-11-23T12:50:54.231Z,13.20
2018-11-23T12:53:23.308Z,14.07
2018-11-23T12:55:52.118Z,13.10
2018-11-23T12:58:21.216Z,13.23
2018-11-23T13:00:50.382Z,12.00
2018-11-23T13:03:19.403Z,14.37
2018-11-23T13:05:48.618Z,12.87
2018-11-23T13:08:17.625Z,11.57
2018-11-23T13:10:46.587Z,12.13
2018-11-23T13:13:16.013Z,13.17
2018-11-23T13:15:45.302Z,14.47
2018-11-23T13:18:14.789Z,13.53
2018-11-23T13:20:43.751Z,12.50
2018-11-23T13:23:13.162Z,12.10
2018-11-23T13:25:41.979Z,12.97
2018-11-23T13:28:11.627Z,14.67
2018-11-23T13:30:40.328Z,12.50
2018-11-23T13:33:09.353Z,14.10
2018-11-23T13:35:38.468Z,13.07
2018-11-23T13:38:07.583Z,12.80
2018-11-23T13:40:37.740Z,14.37
2018-11-23T13:43:06.868Z,16.10
2018-11-23T13:45:35.792Z,14.67
2018-11-23T13:48:05.058Z,15.23
2018-11-23T13:50:33.757Z,15.33
2018-11-23T13:53:03.268Z,15.80
2018-11-23T13:55:32.331Z,16.43
2018-11-23T13:58:01.364Z,14.40
2018-11-23T14:00:30.947Z,15.90
2018-11-23T14:02:59.917Z,16.70
2018-11-23T14:05:30.438Z,15.93
2018-11-23T14:08:00.806Z,15.90
2018-11-23T14:10:31.057Z,15.13
2018-11-23T14:13:00.541Z,14.30
2018-11-23T14:15:31.064Z,16.17
2018-11-23T14:18:08.802Z,14.23
2018-11-23T14:20:37.772Z,15.60
2018-11-23T14:23:07.052Z,15.60
2018-11-23T14:25:37.044Z,15.20
2018-11-23T14:28:06.295Z,15.80
2018-11-23T14:30:35.808Z,15.60
2018-11-23T14:33:05.309Z,16.77
2018-11-23T14:35:35.139Z,15.57
2018-11-23T14:38:04.371Z,16.97
2018-11-23T14:40:33.457Z,16.37
2018-11-23T14:43:02.443Z,14.93
2018-11-23T14:45:33.576Z,15.50
2018-11-23T14:48:05.189Z,15.27
2018-11-23T14:50:35.496Z,15.20
2018-11-23T14:53:04.564Z,16.37
2018-11-23T14:55:33.409Z,15.67
2018-11-23T14:58:02.373Z,16.27
2018-11-23T15:00:32.833Z,17.10
2018-11-23T15:03:02.821Z,18.20
2018-11-23T15:05:31.883Z,16.80
2018-11-23T15:08:01.249Z,15.60
2018-11-23T15:10:31.547Z,18.30
2018-11-23T15:13:01.736Z,18.40
2018-11-23T15:15:36.046Z,16.30
2018-11-23T15:18:05.374Z,15.90
2018-11-23T15:20:37.507Z,16.73
2018-11-23T15:23:10.951Z,14.80
2018-11-23T15:25:39.915Z,18.13
2018-11-23T15:28:11.019Z,16.90
2018-11-23T15:30:40.984Z,19.23
2018-11-23T15:33:11.115Z,17.60
2018-11-23T15:35:41.107Z,18.97
2018-11-23T15:38:12.858Z,18.67
2018-11-23T15:40:42.265Z,20.27
2018-11-23T15:43:12.411Z,18.67
2018-11-23T15:45:41.389Z,21.12
2018-11-23T15:48:11.798Z,20.70
2018-11-23T15:50:41.985Z,17.73
2018-11-23T15:53:13.454Z,18.57
2018-11-23T15:55:42.950Z,19.50
2018-11-23T15:58:13.797Z,19.40
2018-11-23T16:00:44.438Z,20.87
2018-11-23T16:03:15.003Z,22.03
2018-11-23T16:05:44.488Z,20.97
2018-11-23T16:08:15.567Z,22.60
2018-11-23T16:10:44.734Z,22.60
2018-11-23T16:13:14.072Z,21.50
2018-11-23T16:15:43.042Z,22.80
2018-11-23T16:18:12.541Z,23.87
2018-11-23T16:20:43.176Z,21.97
2018-11-23T16:23:14.551Z,24.37
2018-11-23T16:25:44.418Z,24.33
2018-11-23T16:28:14.275Z,24.40
2018-11-23T16:30:44.733Z,24.77
2018-11-23T16:33:16.059Z,23.90
2018-11-23T16:35:45.203Z,25.77
2018-11-23T16:38:15.782Z,26.30
2018-11-23T16:40:46.804Z,26.63
2018-11-23T16:43:16.561Z,26.23
2018-11-23T16:45:45.970Z,25.13
2018-11-23T16:48:15.979Z,23.73
2018-11-23T16:50:46.191Z,24.23
2018-11-23T16:53:20.195Z,26.40
2018-11-23T16:55:50.274Z,26.50
2018-11-23T16:58:19.669Z,26.33
2018-11-23T17:00:50.083Z,28.20
2018-11-23T17:03:20.661Z,27.67
2018-11-23T17:05:57.375Z,26.53
2018-11-23T17:08:26.735Z,27.77
2018-11-23T17:10:55.793Z,26.23
2018-11-23T17:13:26.201Z,28.10
2018-11-23T17:15:56.184Z,27.30
2018-11-23T17:18:25.476Z,26.40
2018-11-23T17:20:54.663Z,25.90
2018-11-23T17:23:24.640Z,22.40
2018-11-23T17:26:00.307Z,25.93
2018-11-23T17:28:29.873Z,27.30
2018-11-23T17:30:59.190Z,25.23
2018-11-23T17:33:28.880Z,30.27
2018-11-23T17:35:59.401Z,24.50
2018-11-23T17:38:28.767Z,26.90
2018-11-23T17:40:58.763Z,24.50
2018-11-23T17:43:29.540Z,26.43
2018-11-23T17:45:59.085Z,25.10
2018-11-23T17:48:29.275Z,24.97
2018-11-23T17:50:59.769Z,24.23
2018-11-23T17:53:28.897Z,25.67
2018-11-23T17:55:58.202Z,23.07
2018-11-23T17:58:28.230Z,23.27
2018-11-23T18:01:11.427Z,24.45
2018-11-23T18:03:42.804Z,20.67
2018-11-23T18:06:13.319Z,20.83
2018-11-23T18:08:43.694Z,22.17
2018-11-23T18:11:17.556Z,24.90
2018-11-23T18:13:47.341Z,23.60
2018-11-23T18:16:17.813Z,20.73
2018-11-23T18:18:47.812Z,23.93
2018-11-23T18:21:17.399Z,20.43
2018-11-23T18:23:46.957Z,20.60
2018-11-23T18:26:18.537Z,20.02
2018-11-23T18:28:48.035Z,18.67
2018-11-23T18:31:17.579Z,18.80
2018-11-23T18:33:47.810Z,18.13
2018-11-23T18:36:16.084Z,19.07
2018-11-23T18:38:45.284Z,18.32
2018-11-23T18:41:14.491Z,16.20
2018-11-23T18:43:43.674Z,18.20
2018-11-23T18:46:13.010Z,17.35
2018-11-23T18:48:42.385Z,18.80
2018-11-23T18:51:11.442Z,19.23
2018-11-23T18:53:40.317Z,18.67
2018-11-23T18:56:10.479Z,19.40
2018-11-23T18:58:39.714Z,18.90
2018-11-23T19:01:09.492Z,19.23
2018-11-23T19:03:38.532Z,18.80
2018-11-23T19:06:07.977Z,20.17
2018-11-23T19:08:36.985Z,18.73
2018-11-23T19:11:08.135Z,19.35
2018-11-23T19:13:42.835Z,20.88
2018-11-23T19:16:13.881Z,20.37
2018-11-23T19:18:42.797Z,20.80
2018-11-23T19:21:11.984Z,20.80
2018-11-23T19:23:40.961Z,19.85
2018-11-23T19:26:10.067Z,20.17
2018-11-23T19:28:39.070Z,20.30
2018-11-23T19:31:08.756Z,20.10
2018-11-23T19:33:38.430Z,19.42
2018-11-23T19:36:07.553Z,20.30
2018-11-23T19:38:36.827Z,20.40
2018-11-23T19:41:06.651Z,18.37
2018-11-23T19:43:35.872Z,18.87
2018-11-23T19:46:06.768Z,20.73
2018-11-23T19:48:36.097Z,19.87
2018-11-23T19:51:05.082Z,19.77
2018-11-23T19:53:34.680Z,19.87
2018-11-23T19:56:03.862Z,18.83
2018-11-23T19:58:33.936Z,21.20
2018-11-23T20:01:04.173Z,19.70
2018-11-23T20:03:33.745Z,20.60
2018-11-23T20:06:03.336Z,19.53
2018-11-23T20:08:32.787Z,19.70
2018-11-23T20:11:01.793Z,20.02
2018-11-23T20:13:30.875Z,20.53
2018-11-23T20:16:00.134Z,19.67
2018-11-23T20:18:29.889Z,21.68
2018-11-23T20:20:59.068Z,20.27
2018-11-23T20:23:28.973Z,21.37
2018-11-23T20:25:57.967Z,18.67
2018-11-23T20:28:27.345Z,19.07
2018-11-23T20:30:56.111Z,19.80
2018-11-23T20:33:25.529Z,19.23
2018-11-23T20:35:54.505Z,19.00
2018-11-23T20:38:23.410Z,18.53
2018-11-23T20:40:52.411Z,20.17
2018-11-23T20:43:21.632Z,21.43
2018-11-23T20:45:51.602Z,20.23
2018-11-23T20:48:21.232Z,19.33
2018-11-23T20:50:51.541Z,20.20
2018-11-23T20:53:21.094Z,17.20
2018-11-23T20:55:50.178Z,19.70
2018-11-23T20:58:19.898Z,19.70
2018-11-23T21:00:49.084Z,22.23
2018-11-23T21:03:18.577Z,19.20
2018-11-23T21:05:47.792Z,19.23
2018-11-23T21:08:16.810Z,19.63
2018-11-23T21:10:46.806Z,17.80
2018-11-23T21:13:16.132Z,17.30
2018-11-23T21:15:46.457Z,16.67
2018-11-23T21:18:17.263Z,16.07
2018-11-23T21:20:46.256Z,16.67
2018-11-23T21:23:15.692Z,16.42
2018-11-23T21:25:46.351Z,19.00
2018-11-23T21:28:15.609Z,17.52
2018-11-23T21:30:45.547Z,17.23
2018-11-23T21:33:15.122Z,16.70
2018-11-23T21:35:44.601Z,16.47
2018-11-23T21:38:13.769Z,18.40
2018-11-23T21:40:44.428Z,16.63
2018-11-23T21:43:12.092Z,17.60
2018-11-23T21:45:42.537Z,16.37
2018-11-23T21:48:25.792Z,15.73
2018-11-23T21:50:55.224Z,15.37
2018-11-23T21:53:27.336Z,17.07
2018-11-23T21:55:57.464Z,15.63
2018-11-23T21:58:26.364Z,15.80
2018-11-23T22:00:55.371Z,17.07
2018-11-23T22:03:24.407Z,18.63
2018-11-23T22:05:53.299Z,18.02
2018-11-23T22:08:22.369Z,17.20
2018-11-23T22:10:52.312Z,18.80
2018-11-23T22:13:22.314Z,17.40
2018-11-23T22:15:53.360Z,16.17
2018-11-23T22:18:22.259Z,17.17
2018-11-23T22:20:51.241Z,18.20
2018-11-23T22:23:20.532Z,18.00
2018-11-23T22:25:49.447Z,18.33
2018-11-23T22:28:18.850Z,19.57
2018-11-23T22:30:47.820Z,16.50
2018-11-23T22:33:16.728Z,18.50
2018-11-23T22:35:48.300Z,19.43
2018-11-23T22:38:16.074Z,19.17
2018-11-23T22:40:45.843Z,18.80
2018-11-23T22:43:15.528Z,19.90
2018-11-23T22:45:44.473Z,19.43
2018-11-23T22:48:13.887Z,18.43
2018-11-23T22:50:43.001Z,16.63
2018-11-23T22:53:12.147Z,17.70
2018-11-23T22:55:41.040Z,17.57
2018-11-23T22:58:10.041Z,18.30
2018-11-23T23:00:41.414Z,19.23
2018-11-23T23:03:10.715Z,17.77
2018-11-23T23:05:42.463Z,16.37
2018-11-23T23:08:09.070Z,17.67
2018-11-23T23:10:38.483Z,17.73
2018-11-23T23:13:07.707Z,17.70
2018-11-23T23:15:36.719Z,17.33
2018-11-23T23:18:05.790Z,17.00
2018-11-23T23:20:34.661Z,18.17
2018-11-23T23:23:03.538Z,18.20
2018-11-23T23:25:32.556Z,18.95
2018-11-23T23:28:01.721Z,17.90
2018-11-23T23:30:30.831Z,18.50
2018-11-23T23:32:59.817Z,19.20
2018-11-23T23:35:28.935Z,19.40
2018-11-23T23:37:58.861Z,20.00
2018-11-23T23:40:28.147Z,18.50
2018-11-23T23:42:58.383Z,19.10
2018-11-23T23:45:27.471Z,19.63
2018-11-23T23:47:56.411Z,18.70
2018-11-23T23:50:25.504Z,18.83
2018-11-23T23:52:54.423Z,20.20
2018-11-23T23:55:23.195Z,20.10
2018-11-23T23:57:52.067Z,18.37
